createdAt,value
2023-03-07T00:05:00.437Z,0
2023-03-07T00:11:23.433Z,0
2023-03-07T00:17:43.436Z,0
2023-03-07T00:24:06.350Z,0
2023-03-07T00:30:26.386Z,0
2023-03-07T00:36:49.428Z,0
2023-03-07T00:43:09.430Z,0
2023-03-07T00:49:32.475Z,0
2023-03-07T00:55:52.418Z,0
2023-03-07T01:02:15.358Z,0
2023-03-07T01:08:35.433Z,0
2023-03-07T01:14:58.439Z,0
2023-03-07T01:21:18.434Z,0
2023-03-07T01:27:41.344Z,0
2023-03-07T01:34:01.451Z,0
2023-03-07T01:40:24.449Z,0
2023-03-07T01:46:44.432Z,0
2023-03-07T01:53:07.385Z,0
2023-03-07T01:59:27.361Z,0
2023-03-07T02:05:50.328Z,0
2023-03-07T02:12:10.416Z,0
2023-03-07T02:18:33.363Z,0
2023-03-07T02:24:53.486Z,0
2023-03-07T02:31:16.459Z,0
2023-03-07T02:37:36.352Z,0
2023-03-07T02:43:59.353Z,0
2023-03-07T02:50:19.527Z,0
2023-03-07T02:56:42.430Z,0
2023-03-07T03:03:02.357Z,0
2023-03-07T03:09:25.542Z,0
2023-03-07T03:15:45.667Z,0
2023-03-07T03:22:08.316Z,0
2023-03-07T03:28:28.420Z,0
2023-03-07T03:34:51.331Z,0
2023-03-07T03:41:11.477Z,0
2023-03-07T03:47:34.372Z,0
2023-03-07T03:53:54.437Z,0
2023-03-07T04:00:18.946Z,0
2023-03-07T04:06:37.455Z,0
2023-03-07T04:24:06.256Z,0
2023-03-07T04:30:26.322Z,0
2023-03-07T04:36:49.377Z,0
2023-03-07T04:43:09.389Z,0
2023-03-07T04:49:32.541Z,0
2023-03-07T04:55:52.409Z,0
2023-03-07T05:02:15.465Z,0
2023-03-07T05:08:35.413Z,0
2023-03-07T05:14:58.506Z,0
2023-03-07T05:21:18.527Z,0
2023-03-07T05:27:41.499Z,0
2023-03-07T05:34:01.405Z,0
2023-03-07T05:40:24.507Z,0
2023-03-07T05:46:44.370Z,1
2023-03-07T05:53:07.432Z,2
2023-03-07T05:59:27.505Z,7
2023-03-07T06:05:50.348Z,11
2023-03-07T06:12:10.369Z,21
2023-03-07T06:18:33.418Z,30
2023-03-07T06:24:53.539Z,39
2023-03-07T06:31:16.424Z,94
2023-03-07T06:37:36.368Z,130
2023-03-07T06:43:59.465Z,240
2023-03-07T06:50:26.585Z,268
2023-03-07T06:56:44.921Z,397
2023-03-07T07:03:02.578Z,296
2023-03-07T07:09:25.350Z,490
2023-03-07T07:15:45.432Z,615
2023-03-07T07:22:08.375Z,566
2023-03-07T07:28:28.408Z,864
2023-03-07T07:34:51.435Z,797
2023-03-07T07:41:11.439Z,812
2023-03-07T07:47:34.331Z,604
2023-03-07T07:53:54.354Z,496
2023-03-07T08:00:17.532Z,582
2023-03-07T08:06:37.371Z,745
2023-03-07T08:13:00.545Z,747
2023-03-07T08:19:20.418Z,697
2023-03-07T08:25:43.438Z,886
2023-03-07T08:32:03.558Z,1053
2023-03-07T08:38:27.843Z,1058
2023-03-07T08:44:46.461Z,1664
2023-03-07T08:51:09.545Z,2029
2023-03-07T08:57:29.419Z,2641
2023-03-07T09:03:52.412Z,1654
2023-03-07T09:10:12.477Z,2727
2023-03-07T09:33:01.391Z,1116
2023-03-07T09:39:24.533Z,1287
2023-03-07T09:45:44.426Z,1332
2023-03-07T09:52:09.273Z,1979
2023-03-07T09:58:27.356Z,1957
2023-03-07T10:04:50.449Z,1320
2023-03-07T10:11:10.419Z,1596
2023-03-07T10:17:33.408Z,1662
2023-03-07T10:23:53.393Z,1213
2023-03-07T10:30:16.446Z,1642
2023-03-07T10:36:36.412Z,2060
2023-03-07T10:42:59.372Z,2115
2023-03-07T10:49:19.439Z,1999
2023-03-07T10:55:42.381Z,1989
2023-03-07T11:02:02.468Z,2055
2023-03-07T11:08:25.435Z,3068
2023-03-07T11:14:45.599Z,3037
2023-03-07T11:21:08.422Z,2229
2023-03-07T11:27:28.449Z,1320
2023-03-07T11:33:58.840Z,1683
2023-03-07T11:40:11.435Z,1776
2023-03-07T11:46:34.417Z,1895
2023-03-07T11:52:54.385Z,1286
2023-03-07T11:59:17.389Z,886
2023-03-07T12:05:37.470Z,871
2023-03-07T12:12:00.423Z,1260
2023-03-07T12:18:20.396Z,1535
2023-03-07T12:24:43.437Z,1541
2023-03-07T12:31:03.342Z,1748
2023-03-07T12:37:26.557Z,1684
2023-03-07T12:43:46.403Z,1806
2023-03-07T12:50:09.538Z,1125
2023-03-07T12:56:29.390Z,1248
2023-03-07T13:02:52.373Z,1336
2023-03-07T13:09:12.429Z,1061
2023-03-07T13:15:35.388Z,1094
2023-03-07T13:21:55.489Z,1308
2023-03-07T13:28:18.339Z,1738
2023-03-07T13:34:38.313Z,975
2023-03-07T13:41:01.373Z,822
2023-03-07T13:47:21.371Z,481
2023-03-07T13:53:44.460Z,731
2023-03-07T14:00:04.416Z,974
2023-03-07T14:06:27.478Z,1009
2023-03-07T14:12:47.398Z,915
2023-03-07T14:19:10.371Z,1169
2023-03-07T14:36:40.279Z,899
2023-03-07T14:43:03.345Z,707
2023-03-07T14:49:23.357Z,621
2023-03-07T14:55:46.340Z,686
2023-03-07T15:02:06.398Z,658
2023-03-07T15:08:29.429Z,417
2023-03-07T15:14:49.343Z,355
2023-03-07T15:21:12.440Z,280
2023-03-07T15:27:32.417Z,269
2023-03-07T15:33:55.367Z,246
2023-03-07T15:40:15.394Z,308
2023-03-07T15:46:38.338Z,342
2023-03-07T15:52:58.480Z,279
2023-03-07T15:59:21.551Z,278
2023-03-07T16:05:41.464Z,288
2023-03-07T16:12:04.738Z,232
2023-03-07T16:18:24.363Z,236
2023-03-07T16:24:47.633Z,153
2023-03-07T16:31:07.504Z,119
2023-03-07T16:37:30.341Z,107
2023-03-07T16:43:50.522Z,68
2023-03-07T16:50:13.465Z,75
2023-03-07T16:56:33.511Z,47
2023-03-07T17:02:56.357Z,30
2023-03-07T17:09:16.373Z,18
2023-03-07T17:15:39.429Z,8
2023-03-07T17:21:59.336Z,5
2023-03-07T17:28:22.547Z,3
2023-03-07T17:34:42.315Z,2
2023-03-07T17:41:05.318Z,1
2023-03-07T17:47:25.613Z,0
2023-03-07T17:53:48.707Z,0
2023-03-07T18:00:08.558Z,0
2023-03-07T18:06:31.493Z,0
2023-03-07T18:12:51.505Z,0
2023-03-07T18:19:25.509Z,0
2023-03-07T18:25:34.467Z,0
2023-03-07T18:31:57.735Z,0
2023-03-07T18:38:17.452Z,0
2023-03-07T18:44:41.765Z,0
2023-03-07T18:51:01.364Z,0
2023-03-07T18:57:24.468Z,0
2023-03-07T19:03:44.416Z,0
2023-03-07T19:10:07.453Z,0
2023-03-07T19:16:27.581Z,0
2023-03-07T19:22:50.352Z,0
2023-03-07T19:38:58.110Z,0
2023-03-07T19:45:18.327Z,0
2023-03-07T19:51:41.342Z,0
2023-03-07T19:58:01.557Z,0
2023-03-07T20:04:24.487Z,0
2023-03-07T20:10:44.471Z,0
2023-03-07T20:17:07.519Z,0
2023-03-07T20:23:27.433Z,0
2023-03-07T20:29:50.431Z,0
2023-03-07T20:36:10.404Z,0
2023-03-07T20:42:33.382Z,0
2023-03-07T20:48:53.513Z,0
2023-03-07T20:55:16.445Z,0
2023-03-07T21:01:36.564Z,0
2023-03-07T21:07:59.442Z,0
2023-03-07T21:14:19.380Z,0
2023-03-07T21:20:42.370Z,0
2023-03-07T21:27:02.418Z,0
2023-03-07T21:33:25.516Z,0
2023-03-07T21:39:45.373Z,0
2023-03-07T21:46:08.374Z,0
2023-03-07T21:52:28.581Z,0
2023-03-07T21:58:51.321Z,0
2023-03-07T22:05:11.342Z,0
2023-03-07T22:11:34.338Z,0
2023-03-07T22:17:54.337Z,0
2023-03-07T22:24:17.462Z,0
2023-03-07T22:30:37.366Z,0
2023-03-07T22:37:00.320Z,0
2023-03-07T22:43:20.372Z,0
2023-03-07T22:49:43.476Z,0
2023-03-07T22:56:03.562Z,0
2023-03-07T23:20:20.386Z,0
2023-03-07T23:26:40.354Z,0
2023-03-07T23:33:03.358Z,0
2023-03-07T23:39:23.532Z,0
2023-03-07T23:45:46.440Z,0
2023-03-07T23:52:06.418Z,0
2023-03-07T23:58:29.455Z,0
